sensor_id;sensor_type;location;lat;lon;timestamp;pressure;altitude;pressure_sealevel;temperature;humidity
22047;BME280;11187;49.412;20.956;2024-01-27T00:00:04;95023.22;;;0.93;100.00
22047;BME280;11187;49.412;20.956;2024-01-27T00:02:45;95011.56;;;0.98;100.00
22047;BME280;11187;49.412;20.956;2024-01-27T00:05:31;95006.56;;;1.01;100.00
22047;BME280;11187;49.412;20.956;2024-01-27T00:08:12;95021.78;;;1.06;100.00
22047;BME280;11187;49.412;20.956;2024-01-27T00:10:58;95031.91;;;1.09;100.00
22047;BME280;11187;49.412;20.956;2024-01-27T00:13:39;95032.78;;;1.11;100.00
22047;BME280;11187;49.412;20.956;2024-01-27T00:16:25;95037.00;;;1.12;100.00
22047;BME280;11187;49.412;20.956;2024-01-27T00:19:06;95053.78;;;1.11;100.00
22047;BME280;11187;49.412;20.956;2024-01-27T00:21:45;95059.72;;;1.12;100.00
22047;BME280;11187;49.412;20.956;2024-01-27T00:24:32;95065.72;;;1.18;100.00
22047;BME280;11187;49.412;20.956;2024-01-27T00:27:26;95053.19;;;1.24;100.00
22047;BME280;11187;49.412;20.956;2024-01-27T00:30:20;95041.50;;;1.31;100.00
22047;BME280;11187;49.412;20.956;2024-01-27T00:32:54;95040.78;;;1.38;100.00
22047;BME280;11187;49.412;20.956;2024-01-27T00:35:41;95040.88;;;1.44;100.00
22047;BME280;11187;49.412;20.956;2024-01-27T00:38:14;95049.38;;;1.50;100.00
22047;BME280;11187;49.412;20.956;2024-01-27T00:41:00;95036.06;;;1.60;100.00
22047;BME280;11187;49.412;20.956;2024-01-27T00:43:34;95038.63;;;1.63;100.00
22047;BME280;11187;49.412;20.956;2024-01-27T00:46:20;95036.13;;;1.64;100.00
22047;BME280;11187;49.412;20.956;2024-01-27T00:48:54;95031.13;;;1.66;100.00
22047;BME280;11187;49.412;20.956;2024-01-27T00:51:40;95028.63;;;1.69;100.00
22047;BME280;11187;49.412;20.956;2024-01-27T00:54:14;95037.13;;;1.73;100.00
22047;BME280;11187;49.412;20.956;2024-01-27T00:57:00;95045.56;;;1.76;100.00
22047;BME280;11187;49.412;20.956;2024-01-27T00:59:34;95043.09;;;1.81;100.00
22047;BME280;11187;49.412;20.956;2024-01-27T01:02:20;95042.28;;;1.82;100.00
22047;BME280;11187;49.412;20.956;2024-01-27T01:04:54;95042.34;;;1.86;100.00
22047;BME280;11187;49.412;20.956;2024-01-27T01:07:40;95038.16;;;1.90;100.00
22047;BME280;11187;49.412;20.956;2024-01-27T01:10:14;95044.94;;;1.93;100.00
22047;BME280;11187;49.412;20.956;2024-01-27T01:13:00;95069.38;;;1.95;100.00
22047;BME280;11187;49.412;20.956;2024-01-27T01:15:34;95071.06;;;1.95;100.00
22047;BME280;11187;49.412;20.956;2024-01-27T01:18:20;95105.59;;;1.96;100.00
22047;BME280;11187;49.412;20.956;2024-01-27T01:20:54;95113.06;;;1.90;100.00
22047;BME280;11187;49.412;20.956;2024-01-27T01:23:47;95118.09;;;1.88;100.00
22047;BME280;11187;49.412;20.956;2024-01-27T01:26:21;95097.03;;;1.87;100.00
22047;BME280;11187;49.412;20.956;2024-01-27T01:29:14;95112.16;;;1.86;100.00
22047;BME280;11187;49.412;20.956;2024-01-27T01:32:10;95114.72;;;1.87;100.00
22047;BME280;11187;49.412;20.956;2024-01-27T01:34:46;95124.84;;;1.89;100.00
22047;BME280;11187;49.412;20.956;2024-01-27T01:37:32;95116.41;;;1.87;100.00
22047;BME280;11187;49.412;20.956;2024-01-27T01:40:06;95121.41;;;1.85;100.00
22047;BME280;11187;49.412;20.956;2024-01-27T01:42:54;95141.53;;;1.81;100.00
22047;BME280;11187;49.412;20.956;2024-01-27T01:45:28;95144.91;;;1.80;100.00
22047;BME280;11187;49.412;20.956;2024-01-27T01:48:14;95155.81;;;1.79;100.00
22047;BME280;11187;49.412;20.956;2024-01-27T01:50:48;95149.88;;;1.77;100.00
22047;BME280;11187;49.412;20.956;2024-01-27T01:53:44;95154.13;;;1.78;100.00
22047;BME280;11187;49.412;20.956;2024-01-27T01:56:18;95174.25;;;1.75;100.00
22047;BME280;11187;49.412;20.956;2024-01-27T01:59:11;95171.72;;;1.75;100.00
22047;BME280;11187;49.412;20.956;2024-01-27T02:01:47;95184.31;;;1.72;100.00
22047;BME280;11187;49.412;20.956;2024-01-27T02:04:41;95188.50;;;1.71;100.00
22047;BME280;11187;49.412;20.956;2024-01-27T02:07:22;95182.63;;;1.71;100.00
22047;BME280;11187;49.412;20.956;2024-01-27T02:10:02;95190.13;;;1.67;100.00
22047;BME280;11187;49.412;20.956;2024-01-27T02:12:42;95191.84;;;1.69;100.00
22047;BME280;11187;49.412;20.956;2024-01-27T02:15:29;95208.63;;;1.66;100.00
22047;BME280;11187;49.412;20.956;2024-01-27T02:18:03;95216.94;;;1.62;100.00
22047;BME280;11187;49.412;20.956;2024-01-27T02:20:49;95207.63;;;1.57;100.00
22047;BME280;11187;49.412;20.956;2024-01-27T02:23:32;95204.97;;;1.52;100.00
22047;BME280;11187;49.412;20.956;2024-01-27T02:26:11;95208.31;;;1.48;100.00
22047;BME280;11187;49.412;20.956;2024-01-27T02:28:52;95196.53;;;1.49;100.00
22047;BME280;11187;49.412;20.956;2024-01-27T02:31:39;95197.34;;;1.48;100.00
22047;BME280;11187;49.412;20.956;2024-01-27T02:34:19;95211.63;;;1.45;100.00
22047;BME280;11187;49.412;20.956;2024-01-27T02:37:05;95220.00;;;1.44;100.00
22047;BME280;11187;49.412;20.956;2024-01-27T02:39:39;95230.84;;;1.40;100.00
22047;BME280;11187;49.412;20.956;2024-01-27T02:42:25;95221.59;;;1.39;100.00
22047;BME280;11187;49.412;20.956;2024-01-27T02:44:59;95232.47;;;1.37;100.00
22047;BME280;11187;49.412;20.956;2024-01-27T02:47:47;95239.97;;;1.34;100.00
22047;BME280;11187;49.412;20.956;2024-01-27T02:50:21;95245.00;;;1.32;100.00
22047;BME280;11187;49.412;20.956;2024-01-27T02:53:07;95222.31;;;1.34;100.00
22047;BME280;11187;49.412;20.956;2024-01-27T02:55:41;95233.22;;;1.33;100.00
22047;BME280;11187;49.412;20.956;2024-01-27T02:58:28;95261.78;;;1.32;100.00
22047;BME280;11187;49.412;20.956;2024-01-27T03:01:01;95248.31;;;1.31;100.00
22047;BME280;11187;49.412;20.956;2024-01-27T03:03:47;95237.34;;;1.29;100.00
22047;BME280;11187;49.412;20.956;2024-01-27T03:06:28;95233.19;;;1.30;100.00
22047;BME280;11187;49.412;20.956;2024-01-27T03:09:14;95218.00;;;1.28;100.00
22047;BME280;11187;49.412;20.956;2024-01-27T03:11:48;95219.69;;;1.28;100.00
22047;BME280;11187;49.412;20.956;2024-01-27T03:14:35;95232.31;;;1.28;100.00
22047;BME280;11187;49.412;20.956;2024-01-27T03:17:15;95223.00;;;1.25;100.00
22047;BME280;11187;49.412;20.956;2024-01-27T03:19:54;95235.53;;;1.22;100.00
22047;BME280;11187;49.412;20.956;2024-01-27T03:22:35;95241.47;;;1.24;100.00
22047;BME280;11187;49.412;20.956;2024-01-27T03:25:21;95238.94;;;1.24;100.00
22047;BME280;11187;49.412;20.956;2024-01-27T03:28:02;95250.72;;;1.23;100.00
22047;BME280;11187;49.412;20.956;2024-01-27T03:30:48;95263.22;;;1.19;100.00
22047;BME280;11187;49.412;20.956;2024-01-27T03:33:29;95263.16;;;1.14;100.00
22047;BME280;11187;49.412;20.956;2024-01-27T03:36:09;95259.69;;;1.11;100.00
22047;BME280;11187;49.412;20.956;2024-01-27T03:38:59;95263.94;;;1.12;100.00
22047;BME280;11187;49.412;20.956;2024-01-27T03:41:33;95260.59;;;1.13;100.00
22047;BME280;11187;49.412;20.956;2024-01-27T03:44:23;95266.50;;;1.15;100.00
22047;BME280;11187;49.412;20.956;2024-01-27T03:46:57;95268.19;;;1.14;100.00
22047;BME280;11187;49.412;20.956;2024-01-27T03:49:44;95272.34;;;1.12;100.00
22047;BME280;11187;49.412;20.956;2024-01-27T03:52:24;95254.72;;;1.14;100.00
22047;BME280;11187;49.412;20.956;2024-01-27T03:55:04;95271.56;;;1.15;100.00
22047;BME280;11187;49.412;20.956;2024-01-27T03:57:45;95290.84;;;1.13;100.00
22047;BME280;11187;49.412;20.956;2024-01-27T04:00:32;95278.22;;;1.13;100.00
22047;BME280;11187;49.412;20.956;2024-01-27T04:03:10;95292.50;;;1.12;100.00
22047;BME280;11187;49.412;20.956;2024-01-27T04:05:57;95303.41;;;1.10;100.00
22047;BME280;11187;49.412;20.956;2024-01-27T04:08:31;95322.78;;;1.12;100.00
22047;BME280;11187;49.412;20.956;2024-01-27T04:11:21;95322.78;;;1.12;100.00
22047;BME280;11187;49.412;20.956;2024-01-27T04:13:55;95343.75;;;1.11;100.00
22047;BME280;11187;49.412;20.956;2024-01-27T04:16:42;95345.47;;;1.12;100.00
22047;BME280;11187;49.412;20.956;2024-01-27T04:19:15;95324.38;;;1.09;100.00
22047;BME280;11187;49.412;20.956;2024-01-27T04:22:02;95323.56;;;1.10;100.00
22047;BME280;11187;49.412;20.956;2024-01-27T04:24:36;95328.63;;;1.11;100.00
22047;BME280;11187;49.412;20.956;2024-01-27T04:27:23;95331.09;;;1.08;100.00
22047;BME280;11187;49.412;20.956;2024-01-27T04:29:59;95331.94;;;1.09;100.00
22047;BME280;11187;49.412;20.956;2024-01-27T04:32:46;95346.16;;;1.05;100.00
22047;BME280;11187;49.412;20.956;2024-01-27T04:35:25;95337.75;;;1.04;100.00
22047;BME280;11187;49.412;20.956;2024-01-27T04:38:12;95349.47;;;1.02;100.00
22047;BME280;11187;49.412;20.956;2024-01-27T04:40:45;95365.44;;;1.03;100.00
22047;BME280;11187;49.412;20.956;2024-01-27T04:43:32;95347.75;;;1.01;100.00
22047;BME280;11187;49.412;20.956;2024-01-27T04:46:05;95357.00;;;1.01;100.00
22047;BME280;11187;49.412;20.956;2024-01-27T04:48:52;95343.53;;;1.00;100.00
22047;BME280;11187;49.412;20.956;2024-01-27T04:51:25;95344.34;;;0.99;100.00
22047;BME280;11187;49.412;20.956;2024-01-27T04:54:12;95370.41;;;1.00;100.00
22047;BME280;11187;49.412;20.956;2024-01-27T04:56:45;95358.66;;;1.00;100.00
22047;BME280;11187;49.412;20.956;2024-01-27T04:59:32;95355.25;;;1.00;100.00
22047;BME280;11187;49.412;20.956;2024-01-27T05:02:05;95355.25;;;1.00;100.00
22047;BME280;11187;49.412;20.956;2024-01-27T05:04:52;95364.56;;;1.01;100.00
22047;BME280;11187;49.412;20.956;2024-01-27T05:07:25;95348.59;;;1.02;100.00
22047;BME280;11187;49.412;20.956;2024-01-27T05:10:19;95360.34;;;1.01;100.00
22047;BME280;11187;49.412;20.956;2024-01-27T05:12:52;95383.84;;;0.99;100.00
22047;BME280;11187;49.412;20.956;2024-01-27T05:15:46;95356.00;;;0.94;100.00
22047;BME280;11187;49.412;20.956;2024-01-27T05:18:40;95362.72;;;0.94;100.00
22047;BME280;11187;49.412;20.956;2024-01-27T05:21:14;95366.94;;;0.95;100.00
22047;BME280;11187;49.412;20.956;2024-01-27T05:24:01;95362.72;;;0.94;100.00
22047;BME280;11187;49.412;20.956;2024-01-27T05:26:34;95366.09;;;0.94;100.00
22047;BME280;11187;49.412;20.956;2024-01-27T05:29:21;95363.47;;;0.90;100.00
22047;BME280;11187;49.412;20.956;2024-01-27T05:31:54;95376.09;;;0.91;100.00
22047;BME280;11187;49.412;20.956;2024-01-27T05:34:41;95368.50;;;0.90;100.00
22047;BME280;11187;49.412;20.956;2024-01-27T05:37:14;95372.81;;;0.94;100.00
22047;BME280;11187;49.412;20.956;2024-01-27T05:40:01;95375.22;;;0.91;100.00
22047;BME280;11187;49.412;20.956;2024-01-27T05:42:36;95375.28;;;0.92;100.00
22047;BME280;11187;49.412;20.956;2024-01-27T05:45:32;95362.66;;;0.92;100.00
22047;BME280;11187;49.412;20.956;2024-01-27T05:48:05;95368.59;;;0.94;100.00
22047;BME280;11187;49.412;20.956;2024-01-27T05:51:00;95366.09;;;0.94;100.00
22047;BME280;11187;49.412;20.956;2024-01-27T05:53:35;95379.53;;;0.95;100.00
22047;BME280;11187;49.412;20.956;2024-01-27T05:56:29;95372.75;;;0.92;100.00
22047;BME280;11187;49.412;20.956;2024-01-27T05:59:16;95385.28;;;0.89;100.00
22047;BME280;11187;49.412;20.956;2024-01-27T06:01:56;95387.78;;;0.88;100.00
22047;BME280;11187;49.412;20.956;2024-01-27T06:04:30;95395.28;;;0.86;100.00
22047;BME280;11187;49.412;20.956;2024-01-27T06:07:17;95386.81;;;0.82;100.00
22047;BME280;11187;49.412;20.956;2024-01-27T06:09:50;95390.13;;;0.80;100.00
22047;BME280;11187;49.412;20.956;2024-01-27T06:12:37;95398.50;;;0.79;100.00
22047;BME280;11187;49.412;20.956;2024-01-27T06:15:11;95399.34;;;0.79;100.00
22047;BME280;11187;49.412;20.956;2024-01-27T06:17:58;95395.16;;;0.80;100.00
22047;BME280;11187;49.412;20.956;2024-01-27T06:20:31;95403.53;;;0.79;100.00
22047;BME280;11187;49.412;20.956;2024-01-27T06:23:27;95399.38;;;0.81;100.00
22047;BME280;11187;49.412;20.956;2024-01-27T06:26:07;95400.22;;;0.80;100.00
22047;BME280;11187;49.412;20.956;2024-01-27T06:28:54;95410.41;;;0.86;100.00
22047;BME280;11187;49.412;20.956;2024-01-27T06:31:27;95413.81;;;0.87;100.00
22047;BME280;11187;49.412;20.956;2024-01-27T06:34:21;95426.41;;;0.87;100.00
22047;BME280;11187;49.412;20.956;2024-01-27T06:37:15;95428.94;;;0.88;100.00
22047;BME280;11187;49.412;20.956;2024-01-27T06:39:49;95422.22;;;0.87;100.00
22047;BME280;11187;49.412;20.956;2024-01-27T06:42:36;95438.25;;;0.91;100.00
22047;BME280;11187;49.412;20.956;2024-01-27T06:45:09;95430.66;;;0.89;100.00
22047;BME280;11187;49.412;20.956;2024-01-27T06:47:56;95446.69;;;0.91;100.00
22047;BME280;11187;49.412;20.956;2024-01-27T06:50:29;95440.81;;;0.92;100.00
22047;BME280;11187;49.412;20.956;2024-01-27T06:53:23;95439.13;;;0.93;100.00
22047;BME280;11187;49.412;20.956;2024-01-27T06:56:17;95451.84;;;0.97;100.00
22047;BME280;11187;49.412;20.956;2024-01-27T06:59:11;95450.22;;;0.98;100.00
22047;BME280;11187;49.412;20.956;2024-01-27T07:01:48;95452.72;;;0.98;100.00
22047;BME280;11187;49.412;20.956;2024-01-27T07:04:42;95467.81;;;0.96;100.00
22047;BME280;11187;49.412;20.956;2024-01-27T07:07:15;95461.03;;;0.94;100.00
22047;BME280;11187;49.412;20.956;2024-01-27T07:10:09;95462.75;;;0.96;100.00
22047;BME280;11187;49.412;20.956;2024-01-27T07:12:42;95455.25;;;0.98;100.00
22047;BME280;11187;49.412;20.956;2024-01-27T07:15:29;95457.72;;;0.96;100.00
22047;BME280;11187;49.412;20.956;2024-01-27T07:18:02;95460.28;;;0.98;100.00
22047;BME280;11187;49.412;20.956;2024-01-27T07:20:50;95467.06;;;1.00;100.00
22047;BME280;11187;49.412;20.956;2024-01-27T07:23:24;95464.56;;;1.00;100.00
22047;BME280;11187;49.412;20.956;2024-01-27T07:26:11;95467.13;;;1.03;100.00
22047;BME280;11187;49.412;20.956;2024-01-27T07:29:05;95487.25;;;1.02;100.00
22047;BME280;11187;49.412;20.956;2024-01-27T07:31:59;95487.25;;;1.02;100.00
22047;BME280;11187;49.412;20.956;2024-01-27T07:34:32;95483.09;;;1.02;100.00
22047;BME280;11187;49.412;20.956;2024-01-27T07:37:19;95462.09;;;1.03;100.00
22047;BME280;11187;49.412;20.956;2024-01-27T07:40:00;95467.19;;;1.07;100.00
22047;BME280;11187;49.412;20.956;2024-01-27T07:42:33;95469.66;;;1.03;100.00
22047;BME280;11187;49.412;20.956;2024-01-27T07:45:21;95474.84;;;1.10;100.00
22047;BME280;11187;49.412;20.956;2024-01-27T07:47:54;95453.94;;;1.14;100.00
22047;BME280;11187;49.412;20.956;2024-01-27T07:50:48;95451.31;;;1.09;100.00
22047;BME280;11187;49.412;20.956;2024-01-27T07:53:23;95464.81;;;1.13;100.00
22047;BME280;11187;49.412;20.956;2024-01-27T07:56:10;95458.97;;;1.14;100.00
22047;BME280;11187;49.412;20.956;2024-01-27T07:58:43;95464.09;;;1.17;100.00
22047;BME280;11187;49.412;20.956;2024-01-27T08:01:30;95467.50;;;1.19;100.00
22047;BME280;11187;49.412;20.956;2024-01-27T08:04:03;95464.88;;;1.16;100.00
22047;BME280;11187;49.412;20.956;2024-01-27T08:06:50;95464.81;;;1.13;100.00
22047;BME280;11187;49.412;20.956;2024-01-27T08:09:24;95464.03;;;1.14;100.00
22047;BME280;11187;49.412;20.956;2024-01-27T08:12:11;95467.44;;;1.17;100.00
22047;BME280;11187;49.412;20.956;2024-01-27T08:14:51;95481.84;;;1.21;100.00
22047;BME280;11187;49.412;20.956;2024-01-27T08:17:31;95472.66;;;1.23;100.00
22047;BME280;11187;49.412;20.956;2024-01-27T08:20:11;95465.94;;;1.24;100.00
22047;BME280;11187;49.412;20.956;2024-01-27T08:22:51;95470.94;;;1.22;100.00
22047;BME280;11187;49.412;20.956;2024-01-27T08:25:31;95478.59;;;1.27;100.00
22047;BME280;11187;49.412;20.956;2024-01-27T08:28:11;95486.22;;;1.29;100.00
22047;BME280;11187;49.412;20.956;2024-01-27T08:30:51;95488.72;;;1.29;100.00
22047;BME280;11187;49.412;20.956;2024-01-27T08:33:31;95495.34;;;1.23;100.00
22047;BME280;11187;49.412;20.956;2024-01-27T08:36:14;95488.69;;;1.27;100.00
22047;BME280;11187;49.412;20.956;2024-01-27T08:38:55;95487.94;;;1.30;100.00
22047;BME280;11187;49.412;20.956;2024-01-27T08:41:35;95493.84;;;1.32;100.00
22047;BME280;11187;49.412;20.956;2024-01-27T08:44:15;95498.94;;;1.33;100.00
22047;BME280;11187;49.412;20.956;2024-01-27T08:46:55;95502.34;;;1.35;100.00
22047;BME280;11187;49.412;20.956;2024-01-27T08:49:38;95512.38;;;1.34;100.00
22047;BME280;11187;49.412;20.956;2024-01-27T08:52:18;95502.28;;;1.34;100.00
22047;BME280;11187;49.412;20.956;2024-01-27T08:54:58;95508.13;;;1.31;100.00
22047;BME280;11187;49.412;20.956;2024-01-27T08:57:38;95510.69;;;1.33;100.00
22047;BME280;11187;49.412;20.956;2024-01-27T09:00:18;95509.09;;;1.36;100.00
22047;BME280;11187;49.412;20.956;2024-01-27T09:02:58;95506.53;;;1.35;100.00
22047;BME280;11187;49.412;20.956;2024-01-27T09:05:38;95508.13;;;1.30;100.00
22047;BME280;11187;49.412;20.956;2024-01-27T09:08:18;95507.28;;;1.31;100.00
22047;BME280;11187;49.412;20.956;2024-01-27T09:10:58;95519.84;;;1.29;100.00
22047;BME280;11187;49.412;20.956;2024-01-27T09:13:45;95530.75;;;1.28;100.00
22047;BME280;11187;49.412;20.956;2024-01-27T09:16:18;95523.09;;;1.23;100.00
22047;BME280;11187;49.412;20.956;2024-01-27T09:19:05;95516.25;;;1.19;100.00
22047;BME280;11187;49.412;20.956;2024-01-27T09:21:45;95527.13;;;1.17;100.00
22047;BME280;11187;49.412;20.956;2024-01-27T09:24:32;95524.53;;;1.14;100.00
22047;BME280;11187;49.412;20.956;2024-01-27T09:27:05;95518.63;;;1.13;100.00
22047;BME280;11187;49.412;20.956;2024-01-27T09:29:59;95526.13;;;1.10;100.00
22047;BME280;11187;49.412;20.956;2024-01-27T09:32:32;95516.88;;;1.11;100.00
22047;BME280;11187;49.412;20.956;2024-01-27T09:35:26;95516.16;;;1.15;100.00
22047;BME280;11187;49.412;20.956;2024-01-27T09:37:59;95523.72;;;1.15;100.00
22047;BME280;11187;49.412;20.956;2024-01-27T09:40:56;95528.81;;;1.18;100.00
22047;BME280;11187;49.412;20.956;2024-01-27T09:43:51;95513.69;;;1.16;100.00
22047;BME280;11187;49.412;20.956;2024-01-27T09:46:26;95520.63;;;1.25;100.00
22047;BME280;11187;49.412;20.956;2024-01-27T09:49:15;95524.97;;;1.32;100.00
22047;BME280;11187;49.412;20.956;2024-01-27T09:51:48;95518.38;;;1.37;100.00
22047;BME280;11187;49.412;20.956;2024-01-27T09:54:37;95517.53;;;1.37;100.00
22047;BME280;11187;49.412;20.956;2024-01-27T09:57:10;95509.97;;;1.38;100.00
22047;BME280;11187;49.412;20.956;2024-01-27T09:59:59;95528.63;;;1.43;100.00
22047;BME280;11187;49.412;20.956;2024-01-27T10:02:33;95527.63;;;1.38;100.00
22047;BME280;11187;49.412;20.956;2024-01-27T10:05:23;95550.44;;;1.41;100.00
22047;BME280;11187;49.412;20.956;2024-01-27T10:07:56;95526.88;;;1.42;100.00
22047;BME280;11187;49.412;20.956;2024-01-27T10:10:54;95540.44;;;1.46;100.00
22047;BME280;11187;49.412;20.956;2024-01-27T10:13:55;95538.81;;;1.48;100.00
22047;BME280;11187;49.412;20.956;2024-01-27T10:16:40;95543.06;;;1.51;100.00
22047;BME280;11187;49.412;20.956;2024-01-27T10:19:27;95542.13;;;1.47;100.00
22047;BME280;11187;49.412;20.956;2024-01-27T10:22:00;95535.41;;;1.48;100.00
22047;BME280;11187;49.412;20.956;2024-01-27T10:24:48;95548.78;;;1.43;100.00
22047;BME280;11187;49.412;20.956;2024-01-27T10:27:21;95542.03;;;1.42;100.00
22047;BME280;11187;49.412;20.956;2024-01-27T10:30:16;95546.28;;;1.45;100.00
22047;BME280;11187;49.412;20.956;2024-01-27T10:33:11;95542.28;;;1.53;100.00
22047;BME280;11187;49.412;20.956;2024-01-27T10:36:05;95555.06;;;1.59;100.00
22047;BME280;11187;49.412;20.956;2024-01-27T10:38:38;95548.47;;;1.66;100.00
22047;BME280;11187;49.412;20.956;2024-01-27T10:41:26;95560.31;;;1.70;100.00
22047;BME280;11187;49.412;20.956;2024-01-27T10:43:59;95557.94;;;1.76;100.00
22047;BME280;11187;49.412;20.956;2024-01-27T10:46:55;95549.47;;;1.74;100.00
22047;BME280;11187;49.412;20.956;2024-01-27T10:49:50;95553.75;;;1.77;100.00
22047;BME280;11187;49.412;20.956;2024-01-27T10:52:28;95561.41;;;1.80;100.00
22047;BME280;11187;49.412;20.956;2024-01-27T10:55:16;95553.75;;;1.77;100.00
22047;BME280;11187;49.412;20.956;2024-01-27T10:57:54;95565.38;;;1.70;100.00
22047;BME280;11187;49.412;20.956;2024-01-27T11:00:43;95565.34;;;1.69;100.00
22047;BME280;11187;49.412;20.956;2024-01-27T11:03:18;95559.41;;;1.66;100.00
22047;BME280;11187;49.412;20.956;2024-01-27T11:06:12;95569.47;;;1.65;100.00
22047;BME280;11187;49.412;20.956;2024-01-27T11:09:08;95562.69;;;1.62;100.00
22047;BME280;11187;49.412;20.956;2024-01-27T11:12:02;95555.94;;;1.61;100.00
22047;BME280;11187;49.412;20.956;2024-01-27T11:15:06;95566.00;;;1.60;100.00
22047;BME280;11187;49.412;20.956;2024-01-27T11:18:01;95558.38;;;1.58;100.00
22047;BME280;11187;49.412;20.956;2024-01-27T11:20:54;95576.88;;;1.57;100.00
22047;BME280;11187;49.412;20.956;2024-01-27T11:23:35;95572.63;;;1.55;100.00
22047;BME280;11187;49.412;20.956;2024-01-27T11:26:18;95567.56;;;1.55;100.00
22047;BME280;11187;49.412;20.956;2024-01-27T11:29:06;95573.47;;;1.55;100.00
22047;BME280;11187;49.412;20.956;2024-01-27T11:31:43;95565.72;;;1.49;100.00
22047;BME280;11187;49.412;20.956;2024-01-27T11:34:45;95570.72;;;1.46;100.00
22047;BME280;11187;49.412;20.956;2024-01-27T11:37:18;95577.44;;;1.45;100.00
22047;BME280;11187;49.412;20.956;2024-01-27T11:40:12;95577.28;;;1.39;100.00
22047;BME280;11187;49.412;20.956;2024-01-27T11:43:06;95580.59;;;1.37;100.00
22047;BME280;11187;49.412;20.956;2024-01-27T11:45:39;95586.44;;;1.36;100.00
22047;BME280;11187;49.412;20.956;2024-01-27T11:48:26;95587.16;;;1.30;100.00
22047;BME280;11187;49.412;20.956;2024-01-27T11:51:06;95592.22;;;1.32;100.00
22047;BME280;11187;49.412;20.956;2024-01-27T11:53:54;95583.00;;;1.32;100.00
22047;BME280;11187;49.412;20.956;2024-01-27T11:56:27;95590.47;;;1.29;100.00
22047;BME280;11187;49.412;20.956;2024-01-27T11:59:14;95588.72;;;1.27;100.00
22047;BME280;11187;49.412;20.956;2024-01-27T12:01:49;95583.56;;;1.20;100.00
22047;BME280;11187;49.412;20.956;2024-01-27T12:04:36;95575.09;;;1.18;100.00
22047;BME280;11187;49.412;20.956;2024-01-27T12:07:09;95567.44;;;1.15;100.00
22047;BME280;11187;49.412;20.956;2024-01-27T12:10:05;95568.28;;;1.16;100.00
22047;BME280;11187;49.412;20.956;2024-01-27T12:12:39;95573.38;;;1.17;100.00
22047;BME280;11187;49.412;20.956;2024-01-27T12:15:33;95579.25;;;1.16;100.00
22047;BME280;11187;49.412;20.956;2024-01-27T12:18:06;95578.41;;;1.17;100.00
22047;BME280;11187;49.412;20.956;2024-01-27T12:21:02;95576.75;;;1.18;100.00
22047;BME280;11187;49.412;20.956;2024-01-27T12:23:57;95578.47;;;1.19;100.00
22047;BME280;11187;49.412;20.956;2024-01-27T12:26:51;95575.81;;;1.14;100.00
22047;BME280;11187;49.412;20.956;2024-01-27T12:29:24;95577.50;;;1.14;100.00
22047;BME280;11187;49.412;20.956;2024-01-27T12:32:11;95577.44;;;1.12;100.00
22047;BME280;11187;49.412;20.956;2024-01-27T12:34:54;95574.03;;;1.10;100.00
22047;BME280;11187;49.412;20.956;2024-01-27T12:37:43;95574.94;;;1.12;100.00
22047;BME280;11187;49.412;20.956;2024-01-27T12:40:23;95573.25;;;1.13;100.00
22047;BME280;11187;49.412;20.956;2024-01-27T12:43:03;95570.72;;;1.13;100.00
22047;BME280;11187;49.412;20.956;2024-01-27T12:45:43;95571.56;;;1.13;100.00
22047;BME280;11187;49.412;20.956;2024-01-27T12:48:23;95570.81;;;1.16;100.00
22047;BME280;11187;49.412;20.956;2024-01-27T12:51:03;95577.56;;;1.17;100.00
22047;BME280;11187;49.412;20.956;2024-01-27T12:53:50;95580.88;;;1.16;100.00
22047;BME280;11187;49.412;20.956;2024-01-27T12:56:23;95580.81;;;1.13;100.00
22047;BME280;11187;49.412;20.956;2024-01-27T12:59:10;95574.09;;;1.12;100.00
22047;BME280;11187;49.412;20.956;2024-01-27T13:01:50;95591.75;;;1.13;100.00
22047;BME280;11187;49.412;20.956;2024-01-27T13:04:30;95584.19;;;1.13;100.00
22047;BME280;11187;49.412;20.956;2024-01-27T13:07:10;95591.75;;;1.12;100.00
22047;BME280;11187;49.412;20.956;2024-01-27T13:09:50;95600.09;;;1.09;100.00
22047;BME280;11187;49.412;20.956;2024-01-27T13:12:30;95593.38;;;1.10;100.00
22047;BME280;11187;49.412;20.956;2024-01-27T13:15:11;95587.47;;;1.09;100.00
22047;BME280;11187;49.412;20.956;2024-01-27T13:17:51;95596.66;;;1.07;100.00
22047;BME280;11187;49.412;20.956;2024-01-27T13:20:38;95593.25;;;1.07;100.00
22047;BME280;11187;49.412;20.956;2024-01-27T13:23:19;95600.81;;;1.07;100.00
22047;BME280;11187;49.412;20.956;2024-01-27T13:26:06;95601.72;;;1.07;100.00
22047;BME280;11187;49.412;20.956;2024-01-27T13:28:51;95610.91;;;1.05;100.00
22047;BME280;11187;49.412;20.956;2024-01-27T13:31:31;95604.06;;;1.01;100.00
22047;BME280;11187;49.412;20.956;2024-01-27T13:34:11;95614.16;;;1.01;100.00
22047;BME280;11187;49.412;20.956;2024-01-27T13:36:52;95609.09;;;1.01;100.00
22047;BME280;11187;49.412;20.956;2024-01-27T13:39:32;95625.06;;;1.01;100.00
22047;BME280;11187;49.412;20.956;2024-01-27T13:42:12;95628.44;;;1.00;100.00
22047;BME280;11187;49.412;20.956;2024-01-27T13:44:52;95631.75;;;0.99;100.00
22047;BME280;11187;49.412;20.956;2024-01-27T13:47:39;95635.09;;;1.00;100.00
22047;BME280;11187;49.412;20.956;2024-01-27T13:50:19;95635.09;;;1.00;100.00
22047;BME280;11187;49.412;20.956;2024-01-27T13:53:06;95633.53;;;1.03;100.00
22047;BME280;11187;49.412;20.956;2024-01-27T13:55:39;95641.94;;;1.02;100.00
22047;BME280;11187;49.412;20.956;2024-01-27T13:58:13;95639.44;;;1.04;100.00
22047;BME280;11187;49.412;20.956;2024-01-27T14:00:53;95631.91;;;1.06;100.00
22047;BME280;11187;49.412;20.956;2024-01-27T14:03:33;95642.84;;;1.06;100.00
22047;BME280;11187;49.412;20.956;2024-01-27T14:06:20;95652.13;;;1.07;100.00
22047;BME280;11187;49.412;20.956;2024-01-27T14:09:01;95642.00;;;1.06;100.00